RYR174C LQBK-ESSA
Flight info
| Callsign | RYR174C |
|---|---|
| Flight time | N/A |
| Altitude | 34000 |
| Route | TEBLI DCT OBUTI DCT INSAX/N0466F330 DCT LEDVA/N0464F340 DCT VAGON DCT XIDNA DCT BEZMI DCT PENOR DCT ARMOD/N0463F350 Z228 NILUG |
| Aircraft | B738/M-SDE2E3FGHIRWXY/LB1 |
Departure
| Time | 2026-04-23 20:23 |
|---|---|
| Airport | Banja Luka International Airport (LQBK) |
Arrival
| Time | N/A |
|---|---|
| Airport | Stockholm-Arlanda Airport (ESSA) |
| Time | Latitude | Longitude | Altitude | Speed | Heading |
|---|---|---|---|---|---|
| 2026-04-23 20:10 | 44.93295 | 17.30293 | 386 ft | 0 kts | 341° |
| 2026-04-23 20:19 | 44.93296 | 17.30293 | 386 ft | 0 kts | 341° |
| 2026-04-23 20:20 | 44.93311 | 17.30279 | 386 ft | 2 kts | 309° |
| 2026-04-23 20:20 | 44.93312 | 17.30255 | 387 ft | 3 kts | 247° |
| 2026-04-23 20:20 | 44.93292 | 17.30235 | 387 ft | 2 kts | 195° |
| 2026-04-23 20:20 | 44.93260 | 17.30234 | 388 ft | 7 kts | 175° |
| 2026-04-23 20:21 | 44.93187 | 17.30193 | 388 ft | 13 kts | 213° |
| 2026-04-23 20:21 | 44.93117 | 17.30127 | 390 ft | 10 kts | 216° |
| 2026-04-23 20:21 | 44.93074 | 17.30067 | 391 ft | 7 kts | 247° |
| 2026-04-23 20:21 | 44.93096 | 17.30018 | 391 ft | 5 kts | 351° |
| 2026-04-23 20:22 | 44.93137 | 17.30009 | 391 ft | 7 kts | 350° |
| 2026-04-23 20:22 | 44.93389 | 17.29945 | 387 ft | 74 kts | 349° |
| 2026-04-23 20:22 | 44.94134 | 17.29751 | 375 ft | 142 kts | 349° |
| 2026-04-23 20:22 | 44.95285 | 17.29463 | 553 ft | 180 kts | 349° |
| 2026-04-23 20:23 | 44.96464 | 17.29160 | 1555 ft | 169 kts | 349° |
| 2026-04-23 20:23 | 44.97577 | 17.28879 | 2293 ft | 168 kts | 350° |
| 2026-04-23 20:23 | 44.98752 | 17.28581 | 2773 ft | 177 kts | 350° |
| 2026-04-23 20:23 | 44.99995 | 17.28258 | 3252 ft | 187 kts | 350° |
| 2026-04-23 20:24 | 45.01327 | 17.27910 | 3682 ft | 202 kts | 351° |
| 2026-04-23 20:24 | 45.02710 | 17.27358 | 4168 ft | 216 kts | 333° |
| 2026-04-23 20:24 | 45.03781 | 17.25798 | 4687 ft | 237 kts | 302° |
| 2026-04-23 20:24 | 45.04445 | 17.23590 | 5196 ft | 253 kts | 296° |
| 2026-04-23 20:25 | 45.05059 | 17.21225 | 5867 ft | 259 kts | 297° |
| 2026-04-23 20:25 | 45.05706 | 17.18860 | 6622 ft | 261 kts | 299° |
| 2026-04-23 20:25 | 45.06390 | 17.16504 | 7323 ft | 264 kts | 300° |
| 2026-04-23 20:25 | 45.07105 | 17.14099 | 7975 ft | 269 kts | 300° |
| 2026-04-23 20:26 | 45.07832 | 17.11658 | 8649 ft | 272 kts | 300° |
| 2026-04-23 20:26 | 45.08560 | 17.09161 | 9324 ft | 277 kts | 299° |
| 2026-04-23 20:26 | 45.09273 | 17.06633 | 9950 ft | 283 kts | 298° |
| 2026-04-23 20:26 | 45.10000 | 17.04024 | 10481 ft | 292 kts | 298° |
| 2026-04-23 20:27 | 45.10773 | 17.01273 | 10889 ft | 307 kts | 298° |
| 2026-04-23 20:27 | 45.11582 | 16.98397 | 11277 ft | 321 kts | 297° |
| 2026-04-23 20:27 | 45.12422 | 16.95408 | 11614 ft | 337 kts | 297° |
| 2026-04-23 20:27 | 45.13294 | 16.92296 | 11994 ft | 351 kts | 296° |
| 2026-04-23 20:28 | 45.14217 | 16.88998 | 12347 ft | 366 kts | 296° |
| 2026-04-23 20:28 | 45.15173 | 16.85577 | 12642 ft | 381 kts | 296° |
| 2026-04-23 20:28 | 45.16148 | 16.82078 | 13151 ft | 390 kts | 295° |
| 2026-04-23 20:28 | 45.17151 | 16.78471 | 13725 ft | 396 kts | 295° |
| 2026-04-23 20:29 | 45.18231 | 16.74852 | 14280 ft | 401 kts | 299° |
| 2026-04-23 20:29 | 45.19630 | 16.71514 | 15029 ft | 397 kts | 311° |
| 2026-04-23 20:29 | 45.21577 | 16.68777 | 15677 ft | 395 kts | 326° |
| 2026-04-23 20:29 | 45.23946 | 16.66784 | 16269 ft | 396 kts | 338° |
| 2026-04-23 20:30 | 45.26490 | 16.65463 | 16911 ft | 397 kts | 345° |
| 2026-04-23 20:30 | 45.31878 | 16.63475 | 18084 ft | 404 kts | 349° |
| 2026-04-23 20:30 | 45.34645 | 16.62588 | 18636 ft | 408 kts | 349° |
| 2026-04-23 20:31 | 45.37390 | 16.61720 | 19221 ft | 411 kts | 349° |
| 2026-04-23 20:31 | 45.40194 | 16.60822 | 19769 ft | 415 kts | 349° |
| 2026-04-23 20:31 | 45.43029 | 16.59896 | 20255 ft | 420 kts | 349° |
| 2026-04-23 20:31 | 45.45882 | 16.58952 | 20821 ft | 422 kts | 349° |
| 2026-04-23 20:32 | 45.48718 | 16.58005 | 21333 ft | 426 kts | 348° |
| 2026-04-23 20:32 | 45.51617 | 16.57031 | 21840 ft | 429 kts | 348° |
| 2026-04-23 20:32 | 45.54535 | 16.56046 | 22390 ft | 431 kts | 349° |
| 2026-04-23 20:32 | 45.57430 | 16.55067 | 22875 ft | 433 kts | 349° |
| 2026-04-23 20:33 | 45.60382 | 16.54067 | 23337 ft | 437 kts | 349° |
| 2026-04-23 20:33 | 45.63357 | 16.53058 | 23754 ft | 441 kts | 349° |
| 2026-04-23 20:33 | 45.66315 | 16.52052 | 24203 ft | 443 kts | 349° |
| 2026-04-23 20:33 | 45.69323 | 16.51028 | 24700 ft | 445 kts | 349° |
| 2026-04-23 20:34 | 45.72350 | 16.49997 | 25080 ft | 448 kts | 350° |
| 2026-04-23 20:34 | 45.75342 | 16.48977 | 25513 ft | 450 kts | 350° |
| 2026-04-23 20:34 | 45.78406 | 16.47933 | 25888 ft | 453 kts | 350° |
| 2026-04-23 20:34 | 45.81478 | 16.46885 | 26278 ft | 456 kts | 350° |
| 2026-04-23 20:35 | 45.84552 | 16.45832 | 26771 ft | 455 kts | 351° |
| 2026-04-23 20:35 | 45.87631 | 16.44775 | 27408 ft | 452 kts | 351° |
| 2026-04-23 20:35 | 45.90649 | 16.43737 | 27962 ft | 449 kts | 352° |
| 2026-04-23 20:35 | 45.93664 | 16.42698 | 28475 ft | 447 kts | 352° |
| 2026-04-23 20:36 | 45.96668 | 16.41665 | 28923 ft | 446 kts | 352° |
| 2026-04-23 20:36 | 45.99703 | 16.40620 | 29308 ft | 447 kts | 353° |
| 2026-04-23 20:36 | 46.02739 | 16.39577 | 29635 ft | 448 kts | 353° |
| 2026-04-23 20:36 | 46.05730 | 16.38549 | 30077 ft | 446 kts | 352° |
| 2026-04-23 20:37 | 46.08736 | 16.37511 | 30579 ft | 444 kts | 353° |
| 2026-04-23 20:37 | 46.11741 | 16.36472 | 31030 ft | 442 kts | 353° |
| 2026-04-23 20:37 | 46.14701 | 16.35449 | 31495 ft | 440 kts | 353° |
| 2026-04-23 20:37 | 46.17653 | 16.34426 | 31945 ft | 437 kts | 352° |
| 2026-04-23 20:38 | 46.20599 | 16.33405 | 32277 ft | 437 kts | 352° |
| 2026-04-23 20:38 | 46.23578 | 16.32375 | 32651 ft | 436 kts | 352° |
| 2026-04-23 20:38 | 46.26500 | 16.31363 | 33000 ft | 435 kts | 352° |
| 2026-04-23 20:38 | 46.29414 | 16.30351 | 33394 ft | 433 kts | 352° |
| 2026-04-23 20:39 | 46.32358 | 16.29328 | 33696 ft | 433 kts | 352° |
| 2026-04-23 20:39 | 46.35291 | 16.28305 | 34087 ft | 430 kts | 352° |
| 2026-04-23 20:39 | 46.41127 | 16.26329 | 34137 ft | 430 kts | 354° |
| 2026-04-23 20:40 | 46.46976 | 16.24565 | 34138 ft | 427 kts | 354° |
| 2026-04-23 20:40 | 46.52829 | 16.22854 | 34135 ft | 427 kts | 354° |
| 2026-04-23 20:41 | 46.58640 | 16.21136 | 34135 ft | 426 kts | 354° |
| 2026-04-23 20:41 | 46.64454 | 16.19393 | 34134 ft | 424 kts | 354° |
| 2026-04-23 20:42 | 46.70230 | 16.17649 | 34136 ft | 425 kts | 354° |
| 2026-04-23 20:42 | 46.76037 | 16.15890 | 34135 ft | 425 kts | 354° |
| 2026-04-23 20:43 | 46.81785 | 16.14142 | 34137 ft | 423 kts | 354° |
| 2026-04-23 20:43 | 46.87559 | 16.12381 | 34137 ft | 422 kts | 354° |
| 2026-04-23 20:44 | 46.93282 | 16.10632 | 34137 ft | 424 kts | 354° |
| 2026-04-23 20:44 | 46.99030 | 16.09078 | 34135 ft | 416 kts | 359° |
| 2026-04-23 20:45 | 47.04715 | 16.09385 | 34141 ft | 409 kts | 14° |
| 2026-04-23 20:45 | 47.10195 | 16.11307 | 34142 ft | 403 kts | 19° |
| 2026-04-23 20:46 | 47.15607 | 16.13558 | 34140 ft | 405 kts | 19° |
| 2026-04-23 20:46 | 47.20997 | 16.15806 | 34138 ft | 404 kts | 19° |
| 2026-04-23 20:47 | 47.26428 | 16.18036 | 34142 ft | 404 kts | 18° |
| 2026-04-23 20:47 | 47.31827 | 16.20236 | 34145 ft | 403 kts | 18° |
| 2026-04-23 20:48 | 47.37214 | 16.22421 | 34141 ft | 402 kts | 18° |
| 2026-04-23 20:48 | 47.42621 | 16.24616 | 34141 ft | 403 kts | 18° |
| 2026-04-23 20:49 | 47.47995 | 16.26800 | 34142 ft | 402 kts | 18° |
| 2026-04-23 20:49 | 47.53376 | 16.28991 | 34142 ft | 401 kts | 18° |
| 2026-04-23 20:50 | 47.58765 | 16.31192 | 34147 ft | 402 kts | 18° |
| 2026-04-23 20:50 | 47.64130 | 16.33386 | 34154 ft | 402 kts | 18° |
| 2026-04-23 20:51 | 47.69501 | 16.35588 | 34159 ft | 401 kts | 18° |
| 2026-04-23 20:51 | 47.74868 | 16.37793 | 34160 ft | 400 kts | 18° |
| 2026-04-23 20:52 | 47.80227 | 16.40000 | 34163 ft | 401 kts | 18° |
| 2026-04-23 20:52 | 47.85586 | 16.42212 | 34161 ft | 400 kts | 18° |
| 2026-04-23 20:53 | 47.90915 | 16.44416 | 34158 ft | 400 kts | 17° |
| 2026-04-23 20:53 | 47.96238 | 16.46622 | 34156 ft | 399 kts | 17° |
| 2026-04-23 20:54 | 48.01612 | 16.48853 | 34151 ft | 399 kts | 17° |
| 2026-04-23 20:54 | 48.06918 | 16.51061 | 34142 ft | 397 kts | 17° |
| 2026-04-23 20:55 | 48.12239 | 16.53280 | 34143 ft | 398 kts | 17° |
| 2026-04-23 20:55 | 48.17605 | 16.55523 | 34142 ft | 399 kts | 17° |
| 2026-04-23 20:56 | 48.22919 | 16.57748 | 34142 ft | 396 kts | 17° |
| 2026-04-23 20:56 | 48.28231 | 16.59976 | 34142 ft | 396 kts | 17° |
| 2026-04-23 20:57 | 48.33503 | 16.62194 | 34144 ft | 394 kts | 17° |
| 2026-04-23 20:57 | 48.38761 | 16.64413 | 34140 ft | 395 kts | 17° |
| 2026-04-23 20:58 | 48.44070 | 16.66656 | 34141 ft | 395 kts | 18° |
| 2026-04-23 20:58 | 48.49317 | 16.68878 | 34146 ft | 393 kts | 18° |
| 2026-04-23 20:59 | 48.54551 | 16.71098 | 34135 ft | 392 kts | 18° |
| 2026-04-23 20:59 | 48.59779 | 16.73320 | 34132 ft | 392 kts | 17° |
| 2026-04-23 21:00 | 48.65036 | 16.75561 | 34129 ft | 392 kts | 17° |
| 2026-04-23 21:00 | 48.70267 | 16.77776 | 34130 ft | 392 kts | 16° |
| 2026-04-23 21:01 | 48.75641 | 16.79277 | 34134 ft | 393 kts | 9° |
| 2026-04-23 21:01 | 48.81073 | 16.80022 | 34133 ft | 394 kts | 7° |
| 2026-04-23 21:02 | 48.86518 | 16.80621 | 34125 ft | 393 kts | 7° |
| 2026-04-23 21:02 | 48.91987 | 16.81236 | 34129 ft | 394 kts | 7° |
| 2026-04-23 21:03 | 48.97427 | 16.81875 | 34135 ft | 394 kts | 7° |
| 2026-04-23 21:03 | 49.02883 | 16.82529 | 34137 ft | 394 kts | 7° |
| 2026-04-23 21:04 | 49.08325 | 16.83186 | 34145 ft | 392 kts | 7° |
| 2026-04-23 21:04 | 49.13753 | 16.83845 | 34140 ft | 393 kts | 7° |
| 2026-04-23 21:05 | 49.19209 | 16.84511 | 34144 ft | 393 kts | 7° |
| 2026-04-23 21:05 | 49.24631 | 16.85171 | 34144 ft | 392 kts | 7° |
| 2026-04-23 21:06 | 49.30065 | 16.85835 | 34140 ft | 392 kts | 7° |
| 2026-04-23 21:06 | 49.35507 | 16.86501 | 34138 ft | 392 kts | 7° |
| 2026-04-23 21:07 | 49.40900 | 16.87161 | 34127 ft | 391 kts | 6° |
| 2026-04-23 21:07 | 49.46323 | 16.87828 | 34115 ft | 390 kts | 7° |
| 2026-04-23 21:08 | 49.51730 | 16.88497 | 34116 ft | 390 kts | 7° |
| 2026-04-23 21:08 | 49.57136 | 16.89166 | 34112 ft | 390 kts | 6° |
| 2026-04-23 21:09 | 49.62535 | 16.89832 | 34115 ft | 389 kts | 6° |
| 2026-04-23 21:09 | 49.67897 | 16.90496 | 34121 ft | 389 kts | 7° |
| 2026-04-23 21:10 | 49.73312 | 16.91171 | 34117 ft | 388 kts | 6° |
| 2026-04-23 21:10 | 49.78682 | 16.91840 | 34123 ft | 389 kts | 6° |
| 2026-04-23 21:11 | 49.84045 | 16.92507 | 34114 ft | 388 kts | 6° |
| 2026-04-23 21:11 | 49.89442 | 16.93182 | 34119 ft | 389 kts | 6° |
| 2026-04-23 21:12 | 49.94811 | 16.93852 | 34112 ft | 387 kts | 6° |
| 2026-04-23 21:12 | 50.00178 | 16.94528 | 34121 ft | 390 kts | 6° |
| 2026-04-23 21:13 | 50.05541 | 16.95206 | 34110 ft | 386 kts | 6° |
| 2026-04-23 21:13 | 50.10872 | 16.95878 | 34103 ft | 386 kts | 6° |
| 2026-04-23 21:14 | 50.16224 | 16.96555 | 34090 ft | 387 kts | 6° |
| 2026-04-23 21:14 | 50.21618 | 16.97238 | 34083 ft | 387 kts | 6° |
| 2026-04-23 21:15 | 50.26951 | 16.97919 | 34083 ft | 387 kts | 6° |
| 2026-04-23 21:15 | 50.32308 | 16.98604 | 34091 ft | 386 kts | 6° |
| 2026-04-23 21:16 | 50.37678 | 16.99292 | 34091 ft | 387 kts | 6° |
| 2026-04-23 21:16 | 50.43016 | 16.99977 | 34103 ft | 389 kts | 6° |
| 2026-04-23 21:17 | 50.48390 | 17.00668 | 34105 ft | 387 kts | 5° |
| 2026-04-23 21:17 | 50.53753 | 17.01356 | 34106 ft | 387 kts | 6° |
| 2026-04-23 21:18 | 50.59070 | 17.02040 | 34106 ft | 386 kts | 6° |
| 2026-04-23 21:18 | 50.64458 | 17.02737 | 34104 ft | 388 kts | 6° |
| 2026-04-23 21:19 | 50.69814 | 17.03431 | 34101 ft | 387 kts | 6° |
| 2026-04-23 21:19 | 50.75138 | 17.04123 | 34107 ft | 386 kts | 6° |
| 2026-04-23 21:20 | 50.80509 | 17.04822 | 34104 ft | 387 kts | 5° |
| 2026-04-23 21:20 | 50.85844 | 17.05515 | 34101 ft | 388 kts | 5° |
| 2026-04-23 21:21 | 50.91226 | 17.06217 | 34107 ft | 389 kts | 5° |
| 2026-04-23 21:21 | 50.96610 | 17.06922 | 34109 ft | 387 kts | 5° |
| 2026-04-23 21:22 | 51.01967 | 17.07625 | 34109 ft | 388 kts | 5° |
| 2026-04-23 21:22 | 51.07335 | 17.08334 | 34110 ft | 387 kts | 5° |
| 2026-04-23 21:23 | 51.12676 | 17.09038 | 34109 ft | 388 kts | 5° |
| 2026-04-23 21:23 | 51.18041 | 17.09746 | 34112 ft | 388 kts | 5° |
| 2026-04-23 21:24 | 51.23407 | 17.10460 | 34106 ft | 386 kts | 5° |
| 2026-04-23 21:24 | 51.28747 | 17.11048 | 34104 ft | 386 kts | 2° |
| 2026-04-23 21:25 | 51.34121 | 17.10508 | 34104 ft | 388 kts | 354° |
| 2026-04-23 21:25 | 51.39441 | 17.09038 | 34101 ft | 390 kts | 352° |
| 2026-04-23 21:26 | 51.44756 | 17.07394 | 34102 ft | 388 kts | 351° |
| 2026-04-23 21:26 | 51.50027 | 17.05774 | 34102 ft | 388 kts | 352° |
| 2026-04-23 21:27 | 51.55308 | 17.04175 | 34100 ft | 388 kts | 352° |
| 2026-04-23 21:27 | 51.60620 | 17.02578 | 34102 ft | 389 kts | 352° |
| 2026-04-23 21:28 | 51.65940 | 17.01002 | 34102 ft | 388 kts | 353° |
| 2026-04-23 21:28 | 51.71269 | 17.00123 | 34102 ft | 386 kts | 0° |
| 2026-04-23 21:29 | 51.76596 | 17.00544 | 34102 ft | 385 kts | 5° |
| 2026-04-23 21:29 | 51.81949 | 17.01354 | 34101 ft | 387 kts | 5° |
| 2026-04-23 21:30 | 51.87266 | 17.02181 | 34103 ft | 385 kts | 5° |
| 2026-04-23 21:30 | 51.92565 | 17.02979 | 34103 ft | 383 kts | 5° |
| 2026-04-23 21:31 | 51.97868 | 17.03757 | 34104 ft | 385 kts | 5° |
| 2026-04-23 21:31 | 52.03206 | 17.04535 | 34102 ft | 385 kts | 5° |
| 2026-04-23 21:32 | 52.08526 | 17.05309 | 34103 ft | 385 kts | 5° |
| 2026-04-23 21:32 | 52.13860 | 17.06089 | 34100 ft | 386 kts | 5° |
| 2026-04-23 21:33 | 52.19179 | 17.06867 | 34100 ft | 385 kts | 5° |
| 2026-04-23 21:33 | 52.24515 | 17.07648 | 34099 ft | 386 kts | 5° |
| 2026-04-23 21:34 | 52.29826 | 17.08426 | 34098 ft | 385 kts | 5° |
| 2026-04-23 21:34 | 52.35145 | 17.09208 | 34099 ft | 386 kts | 5° |
| 2026-04-23 21:35 | 52.40487 | 17.09997 | 34096 ft | 385 kts | 4° |
| 2026-04-23 21:35 | 52.45805 | 17.10784 | 34095 ft | 386 kts | 4° |
| 2026-04-23 21:36 | 52.53785 | 17.11967 | 34096 ft | 385 kts | 5° |
| 2026-04-23 21:37 | 52.59164 | 17.12767 | 34094 ft | 386 kts | 4° |
| 2026-04-23 21:37 | 52.64479 | 17.13559 | 34088 ft | 386 kts | 4° |
| 2026-04-23 21:38 | 52.69836 | 17.14361 | 34090 ft | 385 kts | 4° |
| 2026-04-23 21:38 | 52.75164 | 17.15160 | 34087 ft | 386 kts | 4° |
| 2026-04-23 21:39 | 52.80479 | 17.15959 | 34088 ft | 386 kts | 5° |
| 2026-04-23 21:39 | 52.85810 | 17.16762 | 34087 ft | 387 kts | 4° |
| 2026-04-23 21:40 | 52.91143 | 17.17568 | 34084 ft | 387 kts | 4° |
| 2026-04-23 21:40 | 52.96492 | 17.18376 | 34081 ft | 385 kts | 4° |
| 2026-04-23 21:41 | 53.01828 | 17.19184 | 34083 ft | 386 kts | 4° |
| 2026-04-23 21:41 | 53.07173 | 17.19995 | 34079 ft | 387 kts | 4° |
| 2026-04-23 21:42 | 53.12506 | 17.20809 | 34079 ft | 387 kts | 4° |
| 2026-04-23 21:42 | 53.17824 | 17.21624 | 34075 ft | 386 kts | 4° |
| 2026-04-23 21:43 | 53.23186 | 17.22446 | 34075 ft | 387 kts | 4° |
| 2026-04-23 21:43 | 53.28514 | 17.23266 | 34077 ft | 387 kts | 4° |
| 2026-04-23 21:44 | 53.33874 | 17.24091 | 34070 ft | 388 kts | 4° |
| 2026-04-23 21:44 | 53.39255 | 17.24920 | 34072 ft | 388 kts | 4° |
| 2026-04-23 21:45 | 53.44573 | 17.25744 | 34069 ft | 387 kts | 4° |
| 2026-04-23 21:45 | 53.49950 | 17.26577 | 34069 ft | 389 kts | 4° |
| 2026-04-23 21:46 | 53.55292 | 17.27409 | 34064 ft | 389 kts | 4° |
| 2026-04-23 21:46 | 53.60664 | 17.28247 | 34064 ft | 388 kts | 4° |
| 2026-04-23 21:47 | 53.66021 | 17.29087 | 34062 ft | 388 kts | 4° |
| 2026-04-23 21:47 | 53.71404 | 17.29931 | 34061 ft | 389 kts | 4° |
| 2026-04-23 21:48 | 53.76759 | 17.30774 | 34062 ft | 389 kts | 4° |
| 2026-04-23 21:48 | 53.82129 | 17.31620 | 34060 ft | 389 kts | 4° |
| 2026-04-23 21:49 | 53.87495 | 17.32469 | 34057 ft | 389 kts | 4° |
| 2026-04-23 21:49 | 53.92863 | 17.33319 | 34053 ft | 389 kts | 4° |
| 2026-04-23 21:50 | 53.98251 | 17.34177 | 34052 ft | 390 kts | 4° |
| 2026-04-23 21:50 | 54.03612 | 17.35029 | 34055 ft | 390 kts | 4° |
| 2026-04-23 21:51 | 54.09040 | 17.35895 | 34051 ft | 390 kts | 4° |
| 2026-04-23 21:51 | 54.14408 | 17.36752 | 34042 ft | 390 kts | 4° |
| 2026-04-23 21:52 | 54.19787 | 17.37613 | 34041 ft | 389 kts | 4° |
| 2026-04-23 21:52 | 54.25177 | 17.38480 | 34041 ft | 391 kts | 4° |
| 2026-04-23 21:53 | 54.30565 | 17.39352 | 34042 ft | 390 kts | 4° |
| 2026-04-23 21:53 | 54.35943 | 17.40201 | 34039 ft | 391 kts | 2° |
| 2026-04-23 21:54 | 54.41370 | 17.40180 | 34035 ft | 388 kts | 355° |
| 2026-04-23 21:54 | 54.46720 | 17.39275 | 34034 ft | 391 kts | 353° |
| 2026-04-23 21:55 | 54.52108 | 17.38198 | 34036 ft | 389 kts | 353° |
| 2026-04-23 21:55 | 54.57454 | 17.37133 | 34033 ft | 390 kts | 354° |
| 2026-04-23 21:56 | 54.62850 | 17.36081 | 34038 ft | 390 kts | 353° |
| 2026-04-23 21:56 | 54.68210 | 17.35046 | 34034 ft | 390 kts | 353° |
| 2026-04-23 21:57 | 54.73564 | 17.34012 | 34034 ft | 389 kts | 354° |
| 2026-04-23 21:57 | 54.78960 | 17.32966 | 34036 ft | 391 kts | 353° |